sensor_id;sensor_type;location;lat;lon;timestamp;P1;durP1;ratioP1;P2;durP2;ratioP2
21800;SDS011;11062;51.164;16.924;2023-11-19T00:01:35;23.70;;;14.70;;
21800;SDS011;11062;51.164;16.924;2023-11-19T00:04:01;27.08;;;15.10;;
21800;SDS011;11062;51.164;16.924;2023-11-19T00:06:26;24.95;;;14.70;;
21800;SDS011;11062;51.164;16.924;2023-11-19T00:08:52;26.27;;;14.93;;
21800;SDS011;11062;51.164;16.924;2023-11-19T00:11:21;28.85;;;17.30;;
21800;SDS011;11062;51.164;16.924;2023-11-19T00:13:47;27.52;;;15.60;;
21800;SDS011;11062;51.164;16.924;2023-11-19T00:16:16;24.90;;;15.70;;
21800;SDS011;11062;51.164;16.924;2023-11-19T00:18:44;23.58;;;15.52;;
21800;SDS011;11062;51.164;16.924;2023-11-19T00:21:15;26.92;;;15.23;;
21800;SDS011;11062;51.164;16.924;2023-11-19T00:23:41;23.95;;;15.73;;
21800;SDS011;11062;51.164;16.924;2023-11-19T00:26:09;24.83;;;15.13;;
21800;SDS011;11062;51.164;16.924;2023-11-19T00:29:23;26.42;;;15.45;;
21800;SDS011;11062;51.164;16.924;2023-11-19T00:35:33;20.98;;;13.25;;
21800;SDS011;11062;51.164;16.924;2023-11-19T00:38:32;26.50;;;15.80;;
21800;SDS011;11062;51.164;16.924;2023-11-19T00:45:29;27.52;;;15.73;;
21800;SDS011;11062;51.164;16.924;2023-11-19T00:59:55;26.98;;;15.80;;
21800;SDS011;11062;51.164;16.924;2023-11-19T01:03:07;23.65;;;14.50;;
21800;SDS011;11062;51.164;16.924;2023-11-19T01:30:42;29.48;;;17.10;;
21800;SDS011;11062;51.164;16.924;2023-11-19T01:50:56;24.80;;;15.88;;
21800;SDS011;11062;51.164;16.924;2023-11-19T01:53:27;22.85;;;15.50;;
21800;SDS011;11062;51.164;16.924;2023-11-19T01:55:54;25.75;;;15.00;;
21800;SDS011;11062;51.164;16.924;2023-11-19T01:58:20;25.65;;;15.77;;
21800;SDS011;11062;51.164;16.924;2023-11-19T02:00:48;21.75;;;15.07;;
21800;SDS011;11062;51.164;16.924;2023-11-19T02:03:17;25.75;;;15.50;;
21800;SDS011;11062;51.164;16.924;2023-11-19T02:05:48;24.13;;;16.02;;
21800;SDS011;11062;51.164;16.924;2023-11-19T02:08:15;23.55;;;15.68;;
21800;SDS011;11062;51.164;16.924;2023-11-19T03:14:24;28.42;;;14.95;;
21800;SDS011;11062;51.164;16.924;2023-11-19T04:16:47;27.25;;;14.35;;
21800;SDS011;11062;51.164;16.924;2023-11-19T04:40:54;27.40;;;14.57;;
21800;SDS011;11062;51.164;16.924;2023-11-19T04:43:22;23.48;;;14.52;;
21800;SDS011;11062;51.164;16.924;2023-11-19T04:45:52;23.38;;;14.48;;
21800;SDS011;11062;51.164;16.924;2023-11-19T04:48:19;25.15;;;14.63;;
21800;SDS011;11062;51.164;16.924;2023-11-19T04:50:45;24.88;;;14.27;;
21800;SDS011;11062;51.164;16.924;2023-11-19T04:53:13;21.00;;;12.95;;
21800;SDS011;11062;51.164;16.924;2023-11-19T04:55:40;24.15;;;14.45;;
21800;SDS011;11062;51.164;16.924;2023-11-19T04:58:09;23.50;;;13.77;;
21800;SDS011;11062;51.164;16.924;2023-11-19T05:00:41;23.95;;;14.10;;
21800;SDS011;11062;51.164;16.924;2023-11-19T05:03:07;22.75;;;13.10;;
21800;SDS011;11062;51.164;16.924;2023-11-19T05:05:33;22.80;;;13.43;;
21800;SDS011;11062;51.164;16.924;2023-11-19T05:07:59;22.45;;;13.68;;
21800;SDS011;11062;51.164;16.924;2023-11-19T05:10:25;23.60;;;14.30;;
21800;SDS011;11062;51.164;16.924;2023-11-19T05:12:51;22.48;;;12.43;;
21800;SDS011;11062;51.164;16.924;2023-11-19T05:15:17;20.77;;;12.95;;
21800;SDS011;11062;51.164;16.924;2023-11-19T05:46:04;18.08;;;11.07;;
21800;SDS011;11062;51.164;16.924;2023-11-19T05:48:30;18.38;;;10.73;;
21800;SDS011;11062;51.164;16.924;2023-11-19T05:50:59;17.63;;;10.32;;
21800;SDS011;11062;51.164;16.924;2023-11-19T05:53:25;19.05;;;11.38;;
21800;SDS011;11062;51.164;16.924;2023-11-19T05:55:51;18.45;;;10.88;;
21800;SDS011;11062;51.164;16.924;2023-11-19T05:58:24;18.00;;;11.40;;
21800;SDS011;11062;51.164;16.924;2023-11-19T06:00:56;21.17;;;12.35;;
21800;SDS011;11062;51.164;16.924;2023-11-19T08:14:04;17.98;;;8.52;;
21800;SDS011;11062;51.164;16.924;2023-11-19T08:16:30;27.27;;;9.75;;
21800;SDS011;11062;51.164;16.924;2023-11-19T08:18:56;26.17;;;10.43;;
21800;SDS011;11062;51.164;16.924;2023-11-19T08:21:23;16.02;;;9.00;;
21800;SDS011;11062;51.164;16.924;2023-11-19T08:23:52;23.70;;;11.07;;
21800;SDS011;11062;51.164;16.924;2023-11-19T08:26:18;24.00;;;11.05;;
21800;SDS011;11062;51.164;16.924;2023-11-19T08:28:44;26.65;;;11.10;;
21800;SDS011;11062;51.164;16.924;2023-11-19T08:31:12;19.90;;;9.93;;
21800;SDS011;11062;51.164;16.924;2023-11-19T08:48:27;15.23;;;9.43;;
21800;SDS011;11062;51.164;16.924;2023-11-19T08:51:50;20.05;;;10.63;;
21800;SDS011;11062;51.164;16.924;2023-11-19T09:13:13;14.20;;;8.00;;
21800;SDS011;11062;51.164;16.924;2023-11-19T09:15:39;14.98;;;8.05;;
21800;SDS011;11062;51.164;16.924;2023-11-19T09:18:07;14.52;;;9.05;;
21800;SDS011;11062;51.164;16.924;2023-11-19T09:20:33;14.18;;;8.82;;
21800;SDS011;11062;51.164;16.924;2023-11-19T09:23:03;16.05;;;9.50;;
21800;SDS011;11062;51.164;16.924;2023-11-19T09:25:30;16.42;;;9.38;;
21800;SDS011;11062;51.164;16.924;2023-11-19T09:28:02;13.93;;;8.75;;
21800;SDS011;11062;51.164;16.924;2023-11-19T09:30:37;16.27;;;9.93;;
21800;SDS011;11062;51.164;16.924;2023-11-19T09:33:03;17.33;;;10.07;;
21800;SDS011;11062;51.164;16.924;2023-11-19T09:35:29;13.70;;;9.00;;
21800;SDS011;11062;51.164;16.924;2023-11-19T09:37:58;14.25;;;9.52;;
21800;SDS011;11062;51.164;16.924;2023-11-19T09:40:27;17.33;;;11.15;;
21800;SDS011;11062;51.164;16.924;2023-11-19T09:42:59;18.85;;;10.77;;
21800;SDS011;11062;51.164;16.924;2023-11-19T09:45:28;25.35;;;15.68;;
21800;SDS011;11062;51.164;16.924;2023-11-19T09:47:57;27.45;;;16.98;;
21800;SDS011;11062;51.164;16.924;2023-11-19T10:41:36;5.05;;;3.97;;
21800;SDS011;11062;51.164;16.924;2023-11-19T10:45:23;4.45;;;3.47;;
21800;SDS011;11062;51.164;16.924;2023-11-19T10:55:18;9.15;;;5.75;;
21800;SDS011;11062;51.164;16.924;2023-11-19T10:58:03;7.25;;;4.60;;
21800;SDS011;11062;51.164;16.924;2023-11-19T11:04:25;9.05;;;4.78;;
21800;SDS011;11062;51.164;16.924;2023-11-19T11:07:16;9.68;;;6.13;;
21800;SDS011;11062;51.164;16.924;2023-11-19T13:00:21;12.27;;;6.38;;
21800;SDS011;11062;51.164;16.924;2023-11-19T13:18:34;11.38;;;5.97;;
21800;SDS011;11062;51.164;16.924;2023-11-19T13:21:05;6.70;;;4.80;;
21800;SDS011;11062;51.164;16.924;2023-11-19T13:45:24;11.35;;;6.72;;
21800;SDS011;11062;51.164;16.924;2023-11-19T13:47:51;11.35;;;6.68;;
21800;SDS011;11062;51.164;16.924;2023-11-19T13:50:17;9.45;;;5.70;;
21800;SDS011;11062;51.164;16.924;2023-11-19T13:52:44;10.82;;;5.78;;
21800;SDS011;11062;51.164;16.924;2023-11-19T13:55:12;9.60;;;5.25;;
21800;SDS011;11062;51.164;16.924;2023-11-19T14:19:45;64.18;;;33.25;;
21800;SDS011;11062;51.164;16.924;2023-11-19T14:22:11;45.53;;;25.48;;
21800;SDS011;11062;51.164;16.924;2023-11-19T14:33:30;171.55;;;65.07;;
21800;SDS011;11062;51.164;16.924;2023-11-19T15:08:13;29.00;;;14.35;;
21800;SDS011;11062;51.164;16.924;2023-11-19T15:10:44;32.20;;;17.45;;
21800;SDS011;11062;51.164;16.924;2023-11-19T15:13:10;34.30;;;16.48;;
21800;SDS011;11062;51.164;16.924;2023-11-19T15:15:36;88.15;;;32.45;;
21800;SDS011;11062;51.164;16.924;2023-11-19T15:18:04;250.15;;;75.22;;
21800;SDS011;11062;51.164;16.924;2023-11-19T15:20:30;82.45;;;33.88;;
21800;SDS011;11062;51.164;16.924;2023-11-19T15:22:56;151.07;;;53.88;;
21800;SDS011;11062;51.164;16.924;2023-11-19T15:25:26;159.95;;;53.00;;
21800;SDS011;11062;51.164;16.924;2023-11-19T15:52:47;49.88;;;18.85;;
21800;SDS011;11062;51.164;16.924;2023-11-19T15:55:19;22.55;;;9.48;;
21800;SDS011;11062;51.164;16.924;2023-11-19T16:41:05;29.65;;;13.18;;
21800;SDS011;11062;51.164;16.924;2023-11-19T17:06:37;36.72;;;20.63;;
21800;SDS011;11062;51.164;16.924;2023-11-19T17:33:02;12.73;;;6.15;;
21800;SDS011;11062;51.164;16.924;2023-11-19T17:59:26;23.08;;;10.40;;
21800;SDS011;11062;51.164;16.924;2023-11-19T18:01:52;22.80;;;10.98;;
21800;SDS011;11062;51.164;16.924;2023-11-19T18:04:22;27.60;;;11.82;;
21800;SDS011;11062;51.164;16.924;2023-11-19T18:06:49;25.77;;;12.15;;
21800;SDS011;11062;51.164;16.924;2023-11-19T18:09:15;32.47;;;14.63;;
21800;SDS011;11062;51.164;16.924;2023-11-19T18:35:03;46.72;;;20.67;;
21800;SDS011;11062;51.164;16.924;2023-11-19T18:37:41;57.08;;;27.38;;
21800;SDS011;11062;51.164;16.924;2023-11-19T18:57:11;33.33;;;11.93;;
21800;SDS011;11062;51.164;16.924;2023-11-19T19:30:17;22.60;;;11.32;;
21800;SDS011;11062;51.164;16.924;2023-11-19T19:32:46;24.70;;;10.27;;
21800;SDS011;11062;51.164;16.924;2023-11-19T19:35:15;23.45;;;8.80;;
21800;SDS011;11062;51.164;16.924;2023-11-19T19:56:38;30.25;;;16.65;;
21800;SDS011;11062;51.164;16.924;2023-11-19T19:59:04;27.52;;;12.57;;
21800;SDS011;11062;51.164;16.924;2023-11-19T20:01:30;33.03;;;14.95;;
21800;SDS011;11062;51.164;16.924;2023-11-19T20:03:56;28.35;;;13.82;;
21800;SDS011;11062;51.164;16.924;2023-11-19T20:06:22;20.38;;;10.15;;
21800;SDS011;11062;51.164;16.924;2023-11-19T20:08:49;25.48;;;11.07;;
21800;SDS011;11062;51.164;16.924;2023-11-19T20:11:15;26.23;;;10.65;;
21800;SDS011;11062;51.164;16.924;2023-11-19T20:13:42;22.33;;;9.45;;
21800;SDS011;11062;51.164;16.924;2023-11-19T20:16:11;21.63;;;8.65;;
21800;SDS011;11062;51.164;16.924;2023-11-19T20:18:37;21.83;;;9.27;;
21800;SDS011;11062;51.164;16.924;2023-11-19T20:21:03;22.05;;;10.30;;
21800;SDS011;11062;51.164;16.924;2023-11-19T20:23:34;19.50;;;9.15;;
21800;SDS011;11062;51.164;16.924;2023-11-19T20:26:00;29.33;;;9.45;;
21800;SDS011;11062;51.164;16.924;2023-11-19T20:28:26;17.48;;;7.50;;
21800;SDS011;11062;51.164;16.924;2023-11-19T20:30:52;19.30;;;7.63;;
21800;SDS011;11062;51.164;16.924;2023-11-19T20:33:18;19.33;;;8.30;;
21800;SDS011;11062;51.164;16.924;2023-11-19T20:35:47;21.60;;;8.73;;
21800;SDS011;11062;51.164;16.924;2023-11-19T20:38:15;18.42;;;7.97;;
21800;SDS011;11062;51.164;16.924;2023-11-19T20:40:44;22.35;;;7.03;;
21800;SDS011;11062;51.164;16.924;2023-11-19T20:43:10;15.15;;;6.40;;
21800;SDS011;11062;51.164;16.924;2023-11-19T20:45:36;16.58;;;6.50;;
21800;SDS011;11062;51.164;16.924;2023-11-19T20:48:05;17.77;;;5.78;;
21800;SDS011;11062;51.164;16.924;2023-11-19T20:50:38;16.13;;;5.53;;
21800;SDS011;11062;51.164;16.924;2023-11-19T20:53:05;16.55;;;5.22;;
21800;SDS011;11062;51.164;16.924;2023-11-19T20:55:34;20.77;;;4.25;;
21800;SDS011;11062;51.164;16.924;2023-11-19T20:58:00;8.48;;;3.05;;
21800;SDS011;11062;51.164;16.924;2023-11-19T21:00:34;11.98;;;3.70;;
21800;SDS011;11062;51.164;16.924;2023-11-19T21:03:02;13.00;;;3.28;;
21800;SDS011;11062;51.164;16.924;2023-11-19T21:05:31;9.80;;;3.28;;
21800;SDS011;11062;51.164;16.924;2023-11-19T21:07:58;10.68;;;3.55;;
21800;SDS011;11062;51.164;16.924;2023-11-19T21:13:21;10.13;;;2.58;;
21800;SDS011;11062;51.164;16.924;2023-11-19T22:24:58;12.02;;;3.38;;
21800;SDS011;11062;51.164;16.924;2023-11-19T22:32:13;7.47;;;3.10;;
21800;SDS011;11062;51.164;16.924;2023-11-19T22:34:38;9.68;;;3.13;;
21800;SDS011;11062;51.164;16.924;2023-11-19T22:37:04;13.02;;;4.07;;
21800;SDS011;11062;51.164;16.924;2023-11-19T22:39:31;7.43;;;2.60;;
21800;SDS011;11062;51.164;16.924;2023-11-19T22:41:56;9.80;;;3.67;;
21800;SDS011;11062;51.164;16.924;2023-11-19T22:44:24;9.50;;;3.22;;
21800;SDS011;11062;51.164;16.924;2023-11-19T22:46:53;11.57;;;3.05;;
21800;SDS011;11062;51.164;16.924;2023-11-19T23:39:41;8.80;;;2.72;;
